Time;durP1;ratioP1;P1;durP2;ratioP2;P2;SDS_P1;SDS_P2;PMS_P1;PMS_P2;Temp;Humidity;BMP_temperature;BMP_pressure;BME280_temperature;BME280_humidity;BME280_pressure;Samples;Min_cycle;Max_cycle;Signal;HPM_P1;HPM_P2
2021/03/31 00:01:31;;;;;;;6.97;4.10;;;;;;;;;;5110994;28;20637;-73
2021/03/31 00:03:59;;;;;;;6.17;3.37;;;;;;;;;;5115583;28;20202;-74
2021/03/31 00:06:26;;;;;;;7.27;3.80;;;;;;;;;;5122571;28;20208;-74
2021/03/31 00:08:53;;;;;;;5.67;3.73;;;;;;;;;;5121058;27;20230;-74
2021/03/31 00:11:21;;;;;;;4.67;3.50;;;;;;;;;;5120096;28;20398;-73
2021/03/31 00:13:48;;;;;;;4.13;3.43;;;;;;;;;;5121899;28;20287;-73
2021/03/31 00:16:15;;;;;;;8.13;3.33;;;;;;;;;;5121244;28;20247;-73
2021/03/31 00:18:42;;;;;;;6.87;3.97;;;;;;;;;;5118475;28;20248;-74
2021/03/31 00:21:09;;;;;;;6.37;3.53;;;;;;;;;;5121021;28;20250;-74
2021/03/31 00:23:36;;;;;;;4.93;3.33;;;;;;;;;;5122038;28;20204;-74
2021/03/31 00:26:04;;;;;;;4.77;3.50;;;;;;;;;;5120426;28;20228;-74
2021/03/31 00:28:32;;;;;;;8.97;3.60;;;;;;;;;;5118671;28;20670;-74
2021/03/31 00:30:59;;;;;;;7.07;3.80;;;;;;;;;;5108062;28;20659;-74
2021/03/31 00:33:26;;;;;;;4.87;3.53;;;;;;;;;;5106197;28;20193;-74
2021/03/31 00:35:53;;;;;;;6.93;4.03;;;;;;;;;;5118878;28;20563;-73
2021/03/31 00:38:20;;;;;;;4.03;3.60;;;;;;;;;;5120431;28;20282;-73
2021/03/31 00:40:49;;;;;;;4.60;3.47;;;;;;;;;;5108796;28;20206;-74
2021/03/31 00:43:20;;;;;;;7.13;3.70;;;;;;;;;;5117878;28;20193;-73
2021/03/31 00:45:48;;;;;;;4.27;3.30;;;;;;;;;;5117024;28;20646;-74
2021/03/31 00:48:16;;;;;;;8.57;3.57;;;;;;;;;;5101284;28;20240;-74
2021/03/31 00:50:43;;;;;;;4.77;3.30;;;;;;;;;;5104175;28;20201;-72
2021/03/31 00:53:10;;;;;;;5.77;3.60;;;;;;;;;;5107607;28;20555;-74
2021/03/31 00:55:38;;;;;;;8.87;3.87;;;;;;;;;;5120690;28;20279;-77
2021/03/31 00:58:05;;;;;;;5.57;3.60;;;;;;;;;;5120760;28;20267;-76
2021/03/31 01:00:32;;;;;;;5.63;3.13;;;;;;;;;;5106958;28;20289;-76
2021/03/31 01:03:00;;;;;;;9.03;3.47;;;;;;;;;;5117890;28;20236;-75
2021/03/31 01:05:28;;;;;;;7.13;4.20;;;;;;;;;;5117703;28;20225;-75
2021/03/31 01:07:56;;;;;;;8.70;4.37;;;;;;;;;;5102327;28;20209;-74
2021/03/31 01:10:25;;;;;;;7.10;4.33;;;;;;;;;;5099775;28;20233;-74
2021/03/31 01:13:08;;;;;;;5.97;4.70;;;;;;;;;;5113809;28;20204;-73
2021/03/31 01:15:37;;;;;;;7.47;4.80;;;;;;;;;;5111604;28;20680;-75
2021/03/31 01:18:07;;;;;;;8.00;5.17;;;;;;;;;;5100153;28;20261;-75
2021/03/31 01:20:39;;;;;;;9.70;5.43;;;;;;;;;;5100527;28;20244;-74
2021/03/31 01:23:17;;;;;;;10.63;5.53;;;;;;;;;;5115431;28;20197;-74
2021/03/31 01:25:48;;;;;;;6.40;4.90;;;;;;;;;;5110352;28;20319;-74
2021/03/31 01:28:39;;;;;;;9.70;5.50;;;;;;;;;;5108847;28;20270;-75
2021/03/31 01:31:09;;;;;;;10.37;4.80;;;;;;;;;;5120671;28;20232;-74
2021/03/31 01:34:09;;;;;;;7.37;5.30;;;;;;;;;;5119728;28;20205;-74
2021/03/31 01:36:37;;;;;;;7.00;4.63;;;;;;;;;;5099981;28;20629;-75
2021/03/31 01:39:06;;;;;;;10.37;4.90;;;;;;;;;;5099683;28;20237;-74
2021/03/31 01:41:34;;;;;;;6.13;4.37;;;;;;;;;;5105859;28;20309;-74
2021/03/31 01:44:01;;;;;;;8.70;5.20;;;;;;;;;;5103591;28;20268;-74
2021/03/31 01:46:30;;;;;;;8.00;4.67;;;;;;;;;;5117097;28;20205;-77
2021/03/31 01:48:58;;;;;;;9.03;5.30;;;;;;;;;;5099593;28;20201;-74
2021/03/31 01:51:25;;;;;;;8.90;5.10;;;;;;;;;;5099566;28;20244;-74
2021/03/31 01:53:54;;;;;;;9.03;4.70;;;;;;;;;;5099857;28;20206;-74
2021/03/31 01:56:25;;;;;;;9.90;4.73;;;;;;;;;;5099008;28;20637;-74
2021/03/31 01:58:52;;;;;;;9.40;4.70;;;;;;;;;;5099760;28;20230;-74
2021/03/31 02:01:20;;;;;;;5.80;4.63;;;;;;;;;;5099792;28;20266;-74
2021/03/31 02:03:51;;;;;;;12.20;4.60;;;;;;;;;;5099697;28;20205;-74
2021/03/31 02:06:18;;;;;;;7.37;4.60;;;;;;;;;;5099153;28;20229;-74
2021/03/31 02:08:45;;;;;;;6.60;4.30;;;;;;;;;;5099466;28;20296;-74
2021/03/31 02:11:22;;;;;;;6.07;4.30;;;;;;;;;;5098825;28;20240;-74
2021/03/31 02:13:50;;;;;;;6.43;4.50;;;;;;;;;;5099527;28;20248;-74
2021/03/31 02:16:17;;;;;;;6.87;4.37;;;;;;;;;;5099296;28;20268;-74
2021/03/31 02:18:52;;;;;;;8.57;4.33;;;;;;;;;;5099008;28;20263;-74
2021/03/31 02:21:19;;;;;;;7.90;4.97;;;;;;;;;;5099028;28;20205;-74
2021/03/31 02:23:47;;;;;;;9.50;4.07;;;;;;;;;;5098006;28;20292;-74
2021/03/31 02:26:14;;;;;;;5.43;4.70;;;;;;;;;;5105468;28;20235;-74
2021/03/31 02:28:42;;;;;;;6.83;4.67;;;;;;;;;;5119575;28;20284;-73
2021/03/31 02:31:09;;;;;;;7.47;3.80;;;;;;;;;;5119521;28;20237;-74
2021/03/31 02:33:37;;;;;;;7.27;4.50;;;;;;;;;;5119396;28;20212;-74
2021/03/31 02:36:04;;;;;;;8.77;4.33;;;;;;;;;;5112168;28;20221;-74
2021/03/31 02:38:32;;;;;;;8.73;4.27;;;;;;;;;;5098630;28;20284;-74
2021/03/31 02:41:00;;;;;;;6.03;4.13;;;;;;;;;;5098819;28;20248;-74
2021/03/31 02:43:27;;;;;;;7.13;4.10;;;;;;;;;;5098707;28;20269;-74
2021/03/31 02:45:56;;;;;;;5.13;3.83;;;;;;;;;;5105012;28;20217;-75
2021/03/31 02:48:24;;;;;;;7.50;3.87;;;;;;;;;;5103684;28;20729;-74
2021/03/31 02:50:55;;;;;;;4.60;3.90;;;;;;;;;;5098565;28;20206;-74
2021/03/31 02:53:22;;;;;;;7.13;4.37;;;;;;;;;;5098408;28;20256;-74
2021/03/31 02:55:51;;;;;;;6.53;4.40;;;;;;;;;;5098352;28;20225;-74
2021/03/31 02:58:18;;;;;;;8.17;4.00;;;;;;;;;;5098656;28;20312;-74
2021/03/31 03:00:45;;;;;;;7.97;4.23;;;;;;;;;;5099067;28;20568;-74
2021/03/31 03:03:13;;;;;;;8.70;4.90;;;;;;;;;;5098835;28;20629;-75
2021/03/31 03:05:40;;;;;;;8.00;4.73;;;;;;;;;;5098669;28;20268;-74
2021/03/31 03:08:07;;;;;;;6.30;4.27;;;;;;;;;;5098634;28;20229;-74
2021/03/31 03:10:35;;;;;;;4.77;4.10;;;;;;;;;;5098082;28;20284;-74
2021/03/31 03:13:02;;;;;;;7.87;4.17;;;;;;;;;;5098234;28;20222;-74
2021/03/31 03:15:30;;;;;;;5.00;4.10;;;;;;;;;;5098325;28;20293;-74
2021/03/31 03:17:57;;;;;;;8.63;4.47;;;;;;;;;;5098202;28;20308;-74
2021/03/31 03:20:25;;;;;;;6.13;4.50;;;;;;;;;;5098304;28;20231;-74
2021/03/31 03:22:54;;;;;;;5.67;3.97;;;;;;;;;;5098123;28;20209;-74
2021/03/31 03:25:22;;;;;;;6.83;3.77;;;;;;;;;;5097687;28;20229;-74
2021/03/31 03:27:49;;;;;;;8.67;4.00;;;;;;;;;;5117849;28;20288;-75
2021/03/31 03:30:17;;;;;;;6.53;4.07;;;;;;;;;;5118208;28;20308;-73
2021/03/31 03:32:45;;;;;;;6.73;4.00;;;;;;;;;;5118381;28;20262;-73
2021/03/31 03:35:13;;;;;;;7.97;4.17;;;;;;;;;;5118142;28;20251;-73
2021/03/31 03:37:42;;;;;;;4.90;3.60;;;;;;;;;;5097798;28;20308;-73
2021/03/31 03:40:10;;;;;;;9.97;4.13;;;;;;;;;;5097728;28;20292;-73
2021/03/31 03:42:38;;;;;;;6.67;4.43;;;;;;;;;;5097920;28;20240;-73
2021/03/31 03:45:07;;;;;;;10.17;4.90;;;;;;;;;;5099122;28;20594;-73
2021/03/31 03:47:36;;;;;;;7.13;4.33;;;;;;;;;;5109467;28;20633;-73
2021/03/31 03:50:07;;;;;;;7.03;3.60;;;;;;;;;;5097746;28;20216;-74
2021/03/31 03:52:34;;;;;;;11.00;4.17;;;;;;;;;;5097784;28;20245;-73
2021/03/31 03:55:03;;;;;;;7.80;4.13;;;;;;;;;;5097211;28;20229;-75
2021/03/31 03:57:31;;;;;;;6.83;3.93;;;;;;;;;;5097794;28;20321;-75
2021/03/31 03:59:58;;;;;;;5.93;3.67;;;;;;;;;;5097815;28;20228;-74
2021/03/31 04:02:25;;;;;;;5.57;3.33;;;;;;;;;;5098036;28;20235;-74
2021/03/31 04:04:52;;;;;;;12.00;3.90;;;;;;;;;;5097720;28;20279;-74
2021/03/31 04:07:19;;;;;;;5.07;3.60;;;;;;;;;;5097970;28;20209;-74
2021/03/31 04:09:48;;;;;;;8.37;3.63;;;;;;;;;;5097479;28;20213;-74
2021/03/31 04:12:17;;;;;;;9.67;4.03;;;;;;;;;;5097788;28;20288;-74
2021/03/31 04:14:45;;;;;;;6.03;3.90;;;;;;;;;;5097773;28;20221;-74
2021/03/31 04:17:12;;;;;;;5.23;3.27;;;;;;;;;;5097702;28;20216;-74
2021/03/31 04:19:40;;;;;;;8.37;4.57;;;;;;;;;;5097668;28;20240;-74
2021/03/31 04:22:09;;;;;;;8.00;4.57;;;;;;;;;;5097479;28;20263;-73
2021/03/31 04:24:36;;;;;;;8.23;4.30;;;;;;;;;;5097103;28;20712;-74
2021/03/31 04:27:04;;;;;;;8.53;5.03;;;;;;;;;;5110695;28;20287;-76
2021/03/31 04:29:33;;;;;;;7.00;4.63;;;;;;;;;;5117703;28;20240;-74
2021/03/31 04:32:00;;;;;;;6.57;4.87;;;;;;;;;;5117716;28;20695;-74
2021/03/31 04:34:27;;;;;;;10.23;4.30;;;;;;;;;;5117701;28;20308;-74
2021/03/31 04:36:54;;;;;;;9.50;4.60;;;;;;;;;;5103627;28;20293;-74
2021/03/31 04:39:22;;;;;;;7.70;4.43;;;;;;;;;;5097166;28;20291;-74
2021/03/31 04:41:49;;;;;;;6.87;4.93;;;;;;;;;;5096760;28;20288;-73
2021/03/31 04:44:16;;;;;;;7.53;4.07;;;;;;;;;;5097346;28;21091;-74
2021/03/31 04:46:44;;;;;;;9.30;5.23;;;;;;;;;;5110601;28;20675;-74
2021/03/31 04:49:11;;;;;;;7.23;4.27;;;;;;;;;;5101120;28;20233;-74
2021/03/31 04:51:38;;;;;;;8.57;4.70;;;;;;;;;;5101008;28;20236;-74
2021/03/31 04:54:05;;;;;;;8.63;5.23;;;;;;;;;;5100566;28;20734;-73
2021/03/31 04:56:32;;;;;;;5.23;3.77;;;;;;;;;;5100249;28;20566;-73
2021/03/31 04:58:59;;;;;;;7.80;5.00;;;;;;;;;;5100569;28;20279;-73
2021/03/31 05:01:26;;;;;;;8.20;5.00;;;;;;;;;;5100997;28;20209;-73
2021/03/31 05:03:54;;;;;;;10.47;5.40;;;;;;;;;;5100588;28;20232;-74
2021/03/31 05:06:21;;;;;;;12.07;4.73;;;;;;;;;;5100527;28;20205;-73
2021/03/31 05:08:48;;;;;;;8.87;5.10;;;;;;;;;;5100739;28;20239;-73
2021/03/31 05:11:15;;;;;;;8.73;4.43;;;;;;;;;;5099976;28;20292;-73
2021/03/31 05:13:42;;;;;;;11.80;4.67;;;;;;;;;;5100619;28;20324;-73
2021/03/31 05:16:09;;;;;;;7.57;4.70;;;;;;;;;;5100466;28;20237;-73
2021/03/31 05:18:36;;;;;;;9.20;4.33;;;;;;;;;;5100417;28;20261;-73
2021/03/31 05:21:05;;;;;;;6.20;4.30;;;;;;;;;;5100230;28;20738;-73
2021/03/31 05:23:32;;;;;;;9.23;4.40;;;;;;;;;;5100511;28;20205;-74
2021/03/31 05:25:59;;;;;;;12.93;4.60;;;;;;;;;;5104421;28;20304;-76
2021/03/31 05:28:26;;;;;;;7.53;4.87;;;;;;;;;;5120715;28;20720;-76
2021/03/31 05:30:53;;;;;;;6.70;4.47;;;;;;;;;;5120298;28;20261;-76
2021/03/31 05:33:20;;;;;;;10.17;5.40;;;;;;;;;;5120886;28;20721;-76
2021/03/31 05:35:47;;;;;;;13.70;4.63;;;;;;;;;;5115247;28;20233;-76
2021/03/31 05:38:15;;;;;;;6.60;4.27;;;;;;;;;;5100103;28;20232;-76
2021/03/31 05:40:42;;;;;;;7.27;4.60;;;;;;;;;;5099540;28;20248;-75
2021/03/31 05:43:09;;;;;;;6.73;4.53;;;;;;;;;;5100024;28;20288;-76
2021/03/31 05:45:39;;;;;;;7.43;4.60;;;;;;;;;;5103789;28;20703;-76
2021/03/31 05:48:06;;;;;;;6.33;4.80;;;;;;;;;;5106955;28;20208;-75
2021/03/31 05:50:33;;;;;;;14.00;5.20;;;;;;;;;;5102982;28;20312;-75
2021/03/31 05:53:00;;;;;;;11.50;5.30;;;;;;;;;;5112287;28;20212;-77
2021/03/31 05:55:28;;;;;;;10.77;5.43;;;;;;;;;;5110393;28;20224;-78
2021/03/31 05:57:55;;;;;;;11.67;5.93;;;;;;;;;;5111428;28;20635;-77
2021/03/31 06:00:23;;;;;;;11.97;5.67;;;;;;;;;;5117842;28;20204;-74
2021/03/31 06:02:51;;;;;;;11.53;5.30;;;;;;;;;;5113467;28;20201;-74
2021/03/31 06:05:18;;;;;;;10.20;5.60;;;;;;;;;;5115002;28;20224;-74
2021/03/31 06:07:46;;;;;;;13.33;5.97;;;;;;;;;;5099850;28;20231;-73
2021/03/31 06:10:16;;;;;;;11.67;5.27;;;;;;;;;;5114291;28;20201;-73
2021/03/31 06:12:45;;;;;;;17.73;5.53;;;;;;;;;;5098960;28;20213;-72
2021/03/31 06:15:20;;;;;;;9.30;5.83;;;;;;;;;;5099043;28;20759;-74
2021/03/31 06:17:49;;;;;;;10.90;5.80;;;;;;;;;;5099176;28;20211;-73
2021/03/31 06:20:35;;;;;;;11.47;5.70;;;;;;;;;;5118080;28;20219;-73
2021/03/31 06:23:13;;;;;;;13.90;6.00;;;;;;;;;;5098950;28;20263;-73
2021/03/31 06:25:47;;;;;;;14.57;6.57;;;;;;;;;;5105228;28;20225;-74
2021/03/31 06:28:26;;;;;;;13.30;6.07;;;;;;;;;;5118361;28;20230;-73
2021/03/31 06:31:15;;;;;;;10.97;6.07;;;;;;;;;;5098679;28;20259;-74
2021/03/31 06:33:43;;;;;;;13.30;5.60;;;;;;;;;;5098734;28;20212;-73
2021/03/31 06:36:11;;;;;;;14.30;6.27;;;;;;;;;;5113293;28;20224;-74
2021/03/31 06:38:46;;;;;;;8.93;5.70;;;;;;;;;;5119150;28;20231;-74
2021/03/31 06:41:15;;;;;;;18.70;7.33;;;;;;;;;;5118495;28;20204;-73
2021/03/31 06:43:54;;;;;;;18.70;8.50;;;;;;;;;;5119214;28;20204;-74
2021/03/31 06:46:29;;;;;;;18.93;8.50;;;;;;;;;;5118833;28;20201;-73
2021/03/31 06:48:56;;;;;;;15.70;8.67;;;;;;;;;;5118915;27;20200;-72
2021/03/31 06:51:27;;;;;;;18.97;8.27;;;;;;;;;;5118533;28;20268;-75
2021/03/31 06:53:54;;;;;;;15.63;7.70;;;;;;;;;;5105580;28;20240;-75
2021/03/31 06:56:29;;;;;;;23.60;8.90;;;;;;;;;;5105754;28;20602;-76
2021/03/31 06:58:58;;;;;;;20.17;8.30;;;;;;;;;;5109898;28;20223;-75
2021/03/31 07:01:25;;;;;;;14.60;7.00;;;;;;;;;;5111095;28;20691;-74
2021/03/31 07:03:53;;;;;;;15.97;6.57;;;;;;;;;;5108899;28;20557;-74
2021/03/31 07:06:23;;;;;;;12.53;6.00;;;;;;;;;;5098146;28;20243;-74
2021/03/31 07:08:51;;;;;;;17.00;7.10;;;;;;;;;;5097647;28;20232;-74
2021/03/31 07:11:35;;;;;;;13.90;6.63;;;;;;;;;;5116969;28;20607;-74
2021/03/31 07:14:03;;;;;;;15.40;6.47;;;;;;;;;;5118462;28;20243;-74
2021/03/31 07:16:31;;;;;;;18.43;5.93;;;;;;;;;;5118696;28;20201;-73
2021/03/31 07:18:59;;;;;;;11.10;6.30;;;;;;;;;;5118339;28;20285;-74
2021/03/31 07:21:46;;;;;;;18.33;6.73;;;;;;;;;;5115229;28;20197;-76
2021/03/31 07:24:15;;;;;;;17.30;5.50;;;;;;;;;;5111850;28;20220;-75
2021/03/31 07:26:44;;;;;;;7.27;4.93;;;;;;;;;;5110834;28;20201;-75
2021/03/31 07:29:13;;;;;;;11.30;5.43;;;;;;;;;;5113834;28;20233;-75
2021/03/31 07:31:43;;;;;;;15.37;5.90;;;;;;;;;;5109414;28;20236;-74
2021/03/31 07:34:18;;;;;;;9.73;6.63;;;;;;;;;;5111782;28;20232;-75
2021/03/31 07:36:47;;;;;;;13.50;6.47;;;;;;;;;;5108718;28;20193;-76
2021/03/31 07:39:16;;;;;;;9.77;4.93;;;;;;;;;;5111652;28;20220;-76
2021/03/31 07:41:44;;;;;;;16.13;5.97;;;;;;;;;;5115819;28;20207;-75
2021/03/31 07:44:14;;;;;;;15.00;5.60;;;;;;;;;;5118024;28;20239;-76
2021/03/31 07:46:43;;;;;;;11.37;5.77;;;;;;;;;;5114541;28;20245;-76
2021/03/31 07:49:11;;;;;;;14.60;6.23;;;;;;;;;;5117793;28;20234;-76
2021/03/31 07:51:55;;;;;;;14.97;5.87;;;;;;;;;;5117772;28;20751;-77
2021/03/31 07:54:22;;;;;;;13.80;6.03;;;;;;;;;;5117702;28;20224;-74
2021/03/31 07:56:49;;;;;;;11.93;5.87;;;;;;;;;;5117378;28;20262;-74
2021/03/31 07:59:19;;;;;;;13.90;6.13;;;;;;;;;;5117951;28;20263;-74
2021/03/31 08:01:48;;;;;;;16.67;6.20;;;;;;;;;;5111301;28;20205;-76
2021/03/31 08:04:15;;;;;;;13.13;6.10;;;;;;;;;;5097545;28;20255;-76
2021/03/31 08:06:43;;;;;;;10.23;5.60;;;;;;;;;;5097791;28;20209;-76
2021/03/31 08:09:11;;;;;;;10.87;5.13;;;;;;;;;;5097420;28;20613;-75
2021/03/31 08:12:02;;;;;;;8.20;4.30;;;;;;;;;;5097389;28;20212;-75
2021/03/31 08:14:37;;;;;;;13.20;5.20;;;;;;;;;;5097268;28;20708;-75
2021/03/31 08:17:30;;;;;;;11.17;5.20;;;;;;;;;;5107227;28;20201;-74
2021/03/31 08:19:59;;;;;;;10.83;5.10;;;;;;;;;;5119452;27;20228;-75
2021/03/31 08:22:34;;;;;;;11.07;4.90;;;;;;;;;;5138551;27;20200;-75
2021/03/31 08:25:11;;;;;;;9.73;4.97;;;;;;;;;;5139355;27;20223;-74
2021/03/31 08:27:52;;;;;;;8.63;4.30;;;;;;;;;;5132118;27;20230;-74
2021/03/31 08:30:21;;;;;;;6.90;3.63;;;;;;;;;;5134869;27;20239;-76
2021/03/31 08:32:48;;;;;;;7.57;4.10;;;;;;;;;;5127169;27;20287;-75
2021/03/31 08:35:16;;;;;;;8.93;3.70;;;;;;;;;;5125308;27;20224;-75
2021/03/31 08:37:45;;;;;;;6.00;3.73;;;;;;;;;;5122275;27;20260;-74
2021/03/31 08:40:13;;;;;;;8.00;3.93;;;;;;;;;;5131351;27;20574;-74
2021/03/31 08:43:01;;;;;;;9.60;3.47;;;;;;;;;;5107884;28;20209;-74
2021/03/31 08:45:31;;;;;;;7.53;4.07;;;;;;;;;;5105546;28;20229;-75
2021/03/31 08:47:59;;;;;;;6.03;3.90;;;;;;;;;;5109194;28;20562;-76
2021/03/31 08:50:28;;;;;;;4.13;3.60;;;;;;;;;;5100851;28;20263;-74
2021/03/31 08:52:59;;;;;;;4.90;3.13;;;;;;;;;;5116609;28;20205;-74
2021/03/31 08:55:30;;;;;;;8.43;4.10;;;;;;;;;;5120710;28;20225;-73
2021/03/31 08:57:57;;;;;;;7.93;3.93;;;;;;;;;;5120634;28;20801;-73
2021/03/31 09:00:24;;;;;;;9.33;3.87;;;;;;;;;;5119330;28;20266;-78
2021/03/31 09:03:03;;;;;;;6.10;3.43;;;;;;;;;;5111232;28;20585;-76
2021/03/31 09:05:30;;;;;;;5.50;3.80;;;;;;;;;;5111153;28;20243;-76
2021/03/31 09:08:01;;;;;;;10.27;5.10;;;;;;;;;;5100551;28;20269;-77
2021/03/31 09:10:53;;;;;;;7.20;3.57;;;;;;;;;;5109303;28;20292;-77
2021/03/31 09:13:23;;;;;;;5.67;3.83;;;;;;;;;;5120713;28;20247;-73
2021/03/31 09:15:54;;;;;;;5.13;3.47;;;;;;;;;;5120792;28;20312;-75
2021/03/31 09:18:22;;;;;;;9.17;3.80;;;;;;;;;;5120282;28;20764;-75
2021/03/31 09:20:49;;;;;;;7.07;4.00;;;;;;;;;;5112503;28;20197;-77
2021/03/31 09:23:20;;;;;;;4.73;3.53;;;;;;;;;;5110372;28;20232;-74
2021/03/31 09:25:54;;;;;;;8.13;3.80;;;;;;;;;;5113682;28;20261;-76
2021/03/31 09:28:21;;;;;;;5.07;3.27;;;;;;;;;;5111494;28;20194;-75
2021/03/31 09:30:50;;;;;;;7.57;3.70;;;;;;;;;;5111115;28;20308;-75
2021/03/31 09:33:26;;;;;;;7.97;4.00;;;;;;;;;;5110705;28;20653;-76
2021/03/31 09:36:15;;;;;;;5.17;3.20;;;;;;;;;;5110853;28;20224;-75
2021/03/31 09:39:04;;;;;;;5.67;3.10;;;;;;;;;;5114184;28;20229;-76
2021/03/31 09:41:33;;;;;;;8.53;4.00;;;;;;;;;;5112912;28;20193;-77
2021/03/31 09:44:00;;;;;;;6.13;3.80;;;;;;;;;;5112214;28;20517;-76
2021/03/31 09:46:28;;;;;;;5.47;3.63;;;;;;;;;;5112068;28;20201;-77
2021/03/31 09:48:56;;;;;;;5.07;3.60;;;;;;;;;;5099526;28;20209;-77
2021/03/31 09:51:25;;;;;;;4.47;3.37;;;;;;;;;;5106165;28;20212;-78
2021/03/31 09:53:53;;;;;;;5.73;3.70;;;;;;;;;;5119968;27;20212;-75
2021/03/31 09:56:20;;;;;;;8.63;3.60;;;;;;;;;;5119652;28;20228;-76
2021/03/31 09:58:48;;;;;;;7.57;3.60;;;;;;;;;;5119684;28;20311;-74
2021/03/31 10:01:16;;;;;;;16.13;3.40;;;;;;;;;;5119527;28;20238;-76
2021/03/31 10:03:44;;;;;;;5.57;3.47;;;;;;;;;;5110778;28;20202;-76
2021/03/31 10:06:18;;;;;;;3.87;3.30;;;;;;;;;;5099165;28;20226;-76
2021/03/31 10:08:46;;;;;;;5.67;2.83;;;;;;;;;;5100629;27;20746;-77
2021/03/31 10:11:26;;;;;;;9.67;3.60;;;;;;;;;;5098709;28;20657;-76
2021/03/31 10:13:54;;;;;;;6.03;3.30;;;;;;;;;;5107045;28;20232;-76
2021/03/31 10:16:21;;;;;;;5.67;3.40;;;;;;;;;;5117977;28;20208;-76
2021/03/31 10:18:49;;;;;;;9.23;4.13;;;;;;;;;;5102483;28;20622;-75
2021/03/31 10:21:16;;;;;;;8.10;3.57;;;;;;;;;;5117238;27;20202;-76
2021/03/31 10:23:46;;;;;;;8.20;3.17;;;;;;;;;;5098037;28;20209;-76
2021/03/31 10:26:34;;;;;;;5.17;3.10;;;;;;;;;;5107882;28;20674;-76
2021/03/31 10:29:22;;;;;;;3.73;2.93;;;;;;;;;;5104082;28;20240;-76
2021/03/31 10:32:09;;;;;;;6.07;2.53;;;;;;;;;;5099175;28;20216;-76
2021/03/31 10:34:40;;;;;;;4.37;3.00;;;;;;;;;;5112536;28;20221;-76
2021/03/31 10:37:16;;;;;;;4.73;3.20;;;;;;;;;;5106972;28;20726;-76
2021/03/31 10:48:55;;;;;;;5.43;3.00;;;;;;;;;;5098388;28;20240;-74
2021/03/31 10:51:28;;;;;;;7.43;2.70;;;;;;;;;;5110312;28;20232;-75
2021/03/31 10:53:58;;;;;;;6.87;3.10;;;;;;;;;;5114723;28;20611;-75
2021/03/31 10:56:26;;;;;;;3.03;2.33;;;;;;;;;;5098044;28;20202;-74
2021/03/31 10:58:53;;;;;;;3.37;2.60;;;;;;;;;;5098241;28;20313;-75
2021/03/31 11:01:20;;;;;;;4.77;2.33;;;;;;;;;;5098655;28;20295;-74
2021/03/31 11:03:47;;;;;;;6.40;2.70;;;;;;;;;;5112064;28;20231;-76
2021/03/31 11:06:14;;;;;;;3.03;2.30;;;;;;;;;;5098681;28;20311;-73
2021/03/31 11:08:41;;;;;;;5.60;2.60;;;;;;;;;;5098595;28;20259;-75
2021/03/31 11:11:09;;;;;;;6.13;2.80;;;;;;;;;;5098084;28;20294;-76
2021/03/31 11:13:38;;;;;;;6.17;3.00;;;;;;;;;;5099213;28;20214;-77
2021/03/31 11:16:08;;;;;;;4.10;3.00;;;;;;;;;;5098192;28;20317;-78
2021/03/31 11:18:44;;;;;;;2.87;2.60;;;;;;;;;;5098591;28;20219;-78
2021/03/31 11:26:52;;;;;;;3.93;2.57;;;;;;;;;;5156843;27;20230;-77
2021/03/31 11:29:19;;;;;;;4.30;2.30;;;;;;;;;;5156821;27;20240;-78
2021/03/31 11:31:46;;;;;;;3.73;2.77;;;;;;;;;;5156727;27;20255;-78
2021/03/31 11:34:14;;;;;;;8.97;3.40;;;;;;;;;;5155624;27;20593;-78
2021/03/31 11:36:41;;;;;;;2.87;2.10;;;;;;;;;;5136362;27;20235;-77
2021/03/31 11:39:09;;;;;;;4.93;3.33;;;;;;;;;;5136477;27;20705;-78
2021/03/31 11:41:37;;;;;;;4.67;2.20;;;;;;;;;;5136203;27;20236;-78
2021/03/31 11:44:05;;;;;;;1.93;1.60;;;;;;;;;;5136083;27;20235;-77
2021/03/31 11:46:32;;;;;;;5.80;2.30;;;;;;;;;;5136068;27;20242;-78
2021/03/31 11:49:00;;;;;;;1.80;1.70;;;;;;;;;;5135754;27;20238;-77
2021/03/31 11:51:30;;;;;;;4.77;2.27;;;;;;;;;;5135967;27;20291;-77
2021/03/31 11:53:57;;;;;;;2.83;1.93;;;;;;;;;;5135918;27;20236;-77
2021/03/31 11:56:25;;;;;;;3.13;2.03;;;;;;;;;;5135528;27;20290;-77
2021/03/31 11:58:52;;;;;;;3.10;1.80;;;;;;;;;;5135611;27;20558;-77
2021/03/31 12:01:19;;;;;;;8.00;3.27;;;;;;;;;;5136265;27;20239;-76
2021/03/31 12:03:46;;;;;;;5.47;2.07;;;;;;;;;;5135314;27;20777;-77
2021/03/31 12:06:13;;;;;;;4.37;1.80;;;;;;;;;;5135288;27;20255;-77
2021/03/31 12:08:46;;;;;;;7.30;1.93;;;;;;;;;;5135388;27;20213;-77
2021/03/31 12:11:14;;;;;;;4.43;1.80;;;;;;;;;;5135398;27;20200;-77
2021/03/31 12:13:42;;;;;;;6.63;2.00;;;;;;;;;;5143500;27;20206;-74
2021/03/31 12:16:09;;;;;;;3.63;1.77;;;;;;;;;;5155959;27;20263;-73
2021/03/31 12:18:36;;;;;;;5.43;1.60;;;;;;;;;;5155981;27;20237;-73
2021/03/31 12:21:04;;;;;;;4.77;1.80;;;;;;;;;;5146763;27;20199;-78
2021/03/31 12:23:32;;;;;;;4.27;2.00;;;;;;;;;;5125558;28;20282;-77
2021/03/31 12:26:00;;;;;;;7.47;1.60;;;;;;;;;;5132714;27;20765;-74
2021/03/31 12:28:27;;;;;;;4.40;2.00;;;;;;;;;;5134671;27;20663;-76
2021/03/31 12:30:55;;;;;;;7.00;1.97;;;;;;;;;;5134808;27;20677;-74
2021/03/31 12:33:22;;;;;;;4.60;1.80;;;;;;;;;;5128203;27;20196;-74
2021/03/31 12:35:49;;;;;;;3.37;1.50;;;;;;;;;;5106004;28;20762;-74
2021/03/31 12:38:20;;;;;;;5.37;1.70;;;;;;;;;;5121160;28;20232;-73
2021/03/31 12:40:47;;;;;;;4.63;2.03;;;;;;;;;;5120853;28;20744;-73
2021/03/31 12:43:14;;;;;;;2.60;1.70;;;;;;;;;;5121158;28;20316;-74
2021/03/31 12:45:41;;;;;;;2.47;2.10;;;;;;;;;;5120960;28;20229;-74
2021/03/31 12:48:09;;;;;;;6.53;1.60;;;;;;;;;;5121222;28;20268;-73
2021/03/31 12:50:37;;;;;;;4.50;1.80;;;;;;;;;;5121335;28;20212;-74
2021/03/31 12:53:07;;;;;;;3.97;1.73;;;;;;;;;;5121117;28;20208;-76
2021/03/31 12:55:37;;;;;;;2.60;1.93;;;;;;;;;;5120318;28;20238;-76
2021/03/31 12:58:07;;;;;;;4.53;1.83;;;;;;;;;;5120625;28;20297;-76
2021/03/31 13:00:34;;;;;;;5.30;1.90;;;;;;;;;;5120666;28;20648;-74
2021/03/31 13:03:22;;;;;;;5.73;2.23;;;;;;;;;;5111035;28;20693;-76
2021/03/31 13:05:49;;;;;;;6.40;1.50;;;;;;;;;;5105352;28;20311;-76
2021/03/31 13:08:16;;;;;;;6.47;2.00;;;;;;;;;;5110394;28;20193;-76
2021/03/31 13:11:03;;;;;;;4.40;2.13;;;;;;;;;;5120021;28;20687;-76
2021/03/31 13:13:54;;;;;;;6.03;1.73;;;;;;;;;;5119651;28;20205;-76
2021/03/31 13:16:45;;;;;;;5.20;1.33;;;;;;;;;;5118350;28;20676;-77
2021/03/31 13:22:50;;;;;;;3.67;1.67;;;;;;;;;;5117947;28;20233;-76
2021/03/31 13:25:21;;;;;;;5.10;1.53;;;;;;;;;;5118740;28;20256;-76
2021/03/31 13:28:20;;;;;;;3.67;1.83;;;;;;;;;;5119465;28;20201;-76
2021/03/31 13:30:59;;;;;;;3.30;1.47;;;;;;;;;;5120257;28;20220;-76
2021/03/31 13:33:31;;;;;;;6.93;1.80;;;;;;;;;;5120689;28;20200;-76
2021/03/31 13:36:04;;;;;;;9.30;2.07;;;;;;;;;;5121384;28;20307;-76
2021/03/31 13:38:38;;;;;;;3.40;1.83;;;;;;;;;;5121075;28;20209;-77
2021/03/31 13:41:05;;;;;;;5.83;2.60;;;;;;;;;;5119952;28;20206;-76
2021/03/31 13:43:32;;;;;;;3.90;2.17;;;;;;;;;;5120199;28;20249;-77
2021/03/31 13:45:59;;;;;;;6.60;1.80;;;;;;;;;;5118813;28;20368;-76
2021/03/31 13:48:32;;;;;;;6.60;1.93;;;;;;;;;;5120021;28;20289;-76
2021/03/31 13:51:01;;;;;;;2.70;2.27;;;;;;;;;;5119919;28;20270;-76
2021/03/31 13:53:33;;;;;;;3.20;1.63;;;;;;;;;;5119847;28;20216;-76
2021/03/31 13:56:04;;;;;;;4.67;1.80;;;;;;;;;;5119429;28;20255;-76
2021/03/31 13:58:43;;;;;;;7.53;1.80;;;;;;;;;;5119524;28;20543;-77
2021/03/31 14:01:10;;;;;;;5.07;2.20;;;;;;;;;;5119627;28;20217;-77
2021/03/31 14:03:37;;;;;;;2.93;1.40;;;;;;;;;;5119134;28;20633;-76
2021/03/31 14:06:25;;;;;;;5.30;1.77;;;;;;;;;;5118950;28;20225;-77
2021/03/31 14:09:12;;;;;;;2.87;1.60;;;;;;;;;;5118923;27;20209;-76
2021/03/31 14:11:59;;;;;;;20.53;4.97;;;;;;;;;;5119258;27;20204;-77
2021/03/31 14:14:46;;;;;;;6.57;1.80;;;;;;;;;;5119200;27;20595;-77
2021/03/31 14:17:33;;;;;;;3.37;2.57;;;;;;;;;;5119418;27;20207;-76
2021/03/31 14:20:03;;;;;;;3.43;1.67;;;;;;;;;;5119082;28;20340;-77
2021/03/31 14:22:31;;;;;;;5.07;2.20;;;;;;;;;;5119099;28;20243;-77
2021/03/31 14:25:00;;;;;;;3.10;1.50;;;;;;;;;;5118702;28;20255;-76
2021/03/31 14:27:29;;;;;;;3.43;1.53;;;;;;;;;;5119127;28;20257;-77
2021/03/31 14:30:17;;;;;;;2.60;1.63;;;;;;;;;;5119176;28;20215;-76
2021/03/31 14:32:45;;;;;;;3.43;2.03;;;;;;;;;;5118981;28;20209;-76
2021/03/31 14:35:32;;;;;;;6.43;1.57;;;;;;;;;;5110637;28;20598;-77
2021/03/31 14:38:19;;;;;;;4.57;1.60;;;;;;;;;;5119326;28;20204;-76
2021/03/31 14:41:06;;;;;;;3.63;1.70;;;;;;;;;;5118544;28;20213;-77
2021/03/31 14:43:34;;;;;;;4.73;1.50;;;;;;;;;;5118572;28;20224;-77
2021/03/31 14:46:01;;;;;;;5.03;1.57;;;;;;;;;;5118784;28;20273;-76
2021/03/31 14:48:34;;;;;;;2.63;1.33;;;;;;;;;;5118671;28;20617;-77
2021/03/31 14:51:25;;;;;;;3.33;1.80;;;;;;;;;;5118474;28;20220;-76
2021/03/31 14:56:48;;;;;;;6.10;1.07;;;;;;;;;;5118322;28;20204;-77
2021/03/31 14:59:37;;;;;;;2.33;1.30;;;;;;;;;;5118362;27;20228;-77
2021/03/31 15:02:06;;;;;;;3.83;1.40;;;;;;;;;;5118766;28;20211;-76
2021/03/31 15:04:33;;;;;;;3.80;1.60;;;;;;;;;;5118188;28;20257;-77
2021/03/31 15:07:00;;;;;;;10.83;1.90;;;;;;;;;;5118366;28;20260;-76
2021/03/31 15:09:28;;;;;;;3.93;1.70;;;;;;;;;;5118254;28;20266;-77
2021/03/31 15:11:56;;;;;;;3.37;1.67;;;;;;;;;;5118234;28;20210;-77
2021/03/31 15:14:24;;;;;;;2.00;1.70;;;;;;;;;;5118195;28;20756;-77
2021/03/31 15:17:11;;;;;;;4.00;1.70;;;;;;;;;;5118450;28;20205;-77
2021/03/31 15:19:41;;;;;;;6.57;1.97;;;;;;;;;;5118466;28;20239;-77
2021/03/31 15:22:43;;;;;;;2.27;1.33;;;;;;;;;;5118113;28;20615;-77